createdAt,value
2022-09-24T00:02:11.824Z,99118.75
2022-09-24T00:04:40.477Z,99119.00
2022-09-24T00:07:08.999Z,99117.72
2022-09-24T00:09:37.504Z,99128.19
2022-09-24T00:12:06.078Z,99122.84
2022-09-24T00:14:34.681Z,99126.41
2022-09-24T00:17:03.268Z,99123.84
2022-09-24T00:19:32.070Z,99123.31
2022-09-24T00:22:00.780Z,99135.28
2022-09-24T00:24:47.514Z,99126.34
2022-09-24T00:27:16.075Z,99129.41
2022-09-24T00:29:44.594Z,99138.81
2022-09-24T00:32:14.456Z,99135.47
2022-09-24T00:34:43.122Z,99146.72
2022-09-24T00:37:12.185Z,99146.72
2022-09-24T00:39:40.780Z,99161.50
2022-09-24T00:42:11.274Z,99165.31
2022-09-24T00:44:42.482Z,99168.88
2022-09-24T00:47:14.031Z,99175.47
2022-09-24T00:49:43.873Z,99165.53
2022-09-24T00:52:12.413Z,99173.47
2022-09-24T00:54:41.303Z,99170.13
2022-09-24T00:57:09.975Z,99171.13
2022-09-24T00:59:39.292Z,99179.03
2022-09-24T01:02:08.676Z,99179.78
2022-09-24T01:04:37.280Z,99180.81
2022-09-24T01:07:05.792Z,99184.38
2022-09-24T01:09:35.211Z,99184.63
2022-09-24T01:12:12.359Z,99189.94
2022-09-24T01:15:04.976Z,99198.63
2022-09-24T01:18:01.912Z,99194.00
2022-09-24T01:20:48.261Z,99198.31
2022-09-24T01:23:25.621Z,99212.59
2022-09-24T01:26:22.672Z,99214.34
2022-09-24T01:29:05.188Z,99210.28
2022-09-24T01:31:42.779Z,99216.13
2022-09-24T01:34:16.644Z,99218.63
2022-09-24T01:36:47.892Z,99221.69
2022-09-24T01:39:16.569Z,99218.88
2022-09-24T01:41:46.513Z,99228.31
2022-09-24T01:44:15.342Z,99229.84
2022-09-24T01:46:44.558Z,99237.75
2022-09-24T01:49:13.360Z,99230.84
2022-09-24T01:52:00.299Z,99235.94
2022-09-24T01:54:43.560Z,99239.75
2022-09-24T01:57:33.175Z,99242.56
2022-09-24T02:00:10.953Z,99246.88
2022-09-24T02:03:09.782Z,99261.94
2022-09-24T02:06:09.861Z,99258.59
2022-09-24T02:08:46.271Z,99264.22
2022-09-24T02:11:22.788Z,99263.16
2022-09-24T02:14:29.324Z,99269.78
2022-09-24T02:16:59.974Z,99264.63
2022-09-24T02:19:31.185Z,99274.81
2022-09-24T02:22:00.332Z,99270.50
2022-09-24T02:24:46.998Z,99270.50
2022-09-24T02:27:15.629Z,99269.19
2022-09-24T02:29:45.525Z,99274.81
2022-09-24T02:32:18.823Z,99272.28
2022-09-24T02:34:52.943Z,99272.28
2022-09-24T02:37:25.263Z,99271.75
2022-09-24T02:39:53.830Z,99276.34
2022-09-24T02:42:23.542Z,99273.53
2022-09-24T02:44:53.349Z,99266.88
2022-09-24T02:47:21.831Z,99276.28
2022-09-24T02:49:50.448Z,99273.19
2022-09-24T02:52:19.933Z,99268.56
2022-09-24T02:54:48.480Z,99272.38
2022-09-24T02:57:17.323Z,99268.50
2022-09-24T02:59:46.482Z,99270.53
2022-09-24T03:02:16.354Z,99272.28
2022-09-24T03:04:44.983Z,99271.00
2022-09-24T03:07:15.636Z,99260.75
2022-09-24T03:09:44.130Z,99259.69
2022-09-24T03:12:13.750Z,99258.13
2022-09-24T03:14:42.250Z,99252.97
2022-09-24T03:17:10.746Z,99259.56
2022-09-24T03:19:39.323Z,99253.66
2022-09-24T03:22:07.840Z,99247.50
2022-09-24T03:24:39.659Z,99249.81
2022-09-24T03:27:08.578Z,99244.97
2022-09-24T03:29:57.361Z,99247.25
2022-09-24T03:32:25.832Z,99237.75
2022-09-24T03:34:55.042Z,99244.34
2022-09-24T03:37:23.486Z,99243.28
2022-09-24T03:39:52.294Z,99242.00
2022-09-24T03:42:20.963Z,99235.84
2022-09-24T03:44:49.543Z,99230.50
2022-09-24T03:47:18.079Z,99232.78
2022-09-24T03:49:46.592Z,99219.47
2022-09-24T03:52:15.220Z,99221.97
2022-09-24T03:54:43.682Z,99223.19
2022-09-24T03:57:15.862Z,99217.81
2022-09-24T03:59:45.452Z,99208.31
2022-09-24T04:02:14.411Z,99204.22
2022-09-24T04:04:43.138Z,99197.31
2022-09-24T04:07:13.991Z,99193.19
2022-09-24T04:09:42.757Z,99193.41
2022-09-24T04:12:11.457Z,99186.28
2022-09-24T04:14:41.201Z,99188.03
2022-09-24T04:17:13.608Z,99190.31
2022-09-24T04:19:42.210Z,99180.56
2022-09-24T04:22:10.741Z,99170.84
2022-09-24T04:24:39.349Z,99160.88
2022-09-24T04:27:07.874Z,99161.63
2022-09-24T04:29:36.390Z,99151.91
2022-09-24T04:32:04.930Z,99154.94
2022-09-24T04:34:34.383Z,99146.72
2022-09-24T04:37:02.873Z,99144.13
2022-09-24T04:39:31.319Z,99137.22
2022-09-24T04:42:00.147Z,99135.91
2022-09-24T04:44:30.130Z,99118.50
2022-09-24T04:47:02.489Z,99109.03
2022-09-24T04:49:31.480Z,99095.41
2022-09-24T04:52:00.068Z,99086.84
2022-09-24T04:54:29.046Z,99093.69
2022-09-24T04:56:57.586Z,99079.53
2022-09-24T04:59:26.009Z,99083.34
2022-09-24T05:01:55.652Z,99080.28
2022-09-24T05:04:24.758Z,99077.25
2022-09-24T05:06:53.229Z,99072.47
2022-09-24T05:09:21.688Z,99070.72
2022-09-24T05:11:50.168Z,99068.78
2022-09-24T05:14:18.730Z,99059.34
2022-09-24T05:16:47.359Z,99060.94
2022-09-24T05:19:15.861Z,99058.44
2022-09-24T05:21:44.369Z,99055.19
2022-09-24T05:24:12.826Z,99051.38
2022-09-24T05:26:59.574Z,99048.88
2022-09-24T05:29:28.471Z,99028.75
2022-09-24T05:31:57.273Z,99035.47
2022-09-24T05:34:25.814Z,99030.38
2022-09-24T05:36:54.314Z,99026.03
2022-09-24T05:39:22.873Z,99023.22
2022-09-24T05:41:51.445Z,99011.97
2022-09-24T05:44:21.922Z,99009.38
2022-09-24T05:46:51.523Z,99003.97
2022-09-24T05:49:20.914Z,98999.56
2022-09-24T05:51:51.243Z,98986.25
2022-09-24T05:54:20.677Z,98981.59
2022-09-24T05:56:49.160Z,98976.41
2022-09-24T05:59:17.692Z,98971.22
2022-09-24T06:01:46.288Z,98964.22
2022-09-24T06:04:14.991Z,98962.59
2022-09-24T06:06:44.641Z,98965.75
2022-09-24T06:09:13.272Z,98961.84
2022-09-24T06:11:41.927Z,98944.13
2022-09-24T06:14:10.824Z,98942.75
2022-09-24T06:16:39.342Z,98940.91
2022-09-24T06:19:08.007Z,98927.78
2022-09-24T06:21:36.534Z,98928.22
2022-09-24T06:24:05.155Z,98932.22
2022-09-24T06:26:34.282Z,98924.97
2022-09-24T06:29:05.249Z,98919.00
2022-09-24T06:31:35.712Z,98917.59
2022-09-24T06:34:04.211Z,98906.75
2022-09-24T06:36:32.632Z,98905.66
2022-09-24T06:39:01.164Z,98901.75
2022-09-24T06:41:29.721Z,98896.34
2022-09-24T06:43:58.171Z,98889.94
2022-09-24T06:46:28.646Z,98879.44
2022-09-24T06:48:57.185Z,98870.44
2022-09-24T06:51:25.685Z,98870.44
2022-09-24T06:53:54.502Z,98862.53
2022-09-24T06:56:23.053Z,98853.13
2022-09-24T06:58:51.582Z,98849.00
2022-09-24T07:01:20.270Z,98844.13
2022-09-24T07:03:48.856Z,98842.06
2022-09-24T07:06:17.510Z,98840.75
2022-09-24T07:08:46.006Z,98832.50
2022-09-24T07:11:16.382Z,98826.13
2022-09-24T07:13:45.051Z,98826.34
2022-09-24T07:16:13.644Z,98822.22
2022-09-24T07:18:42.215Z,98806.81
2022-09-24T07:21:10.772Z,98803.25
2022-09-24T07:23:39.842Z,98800.66
2022-09-24T07:26:08.374Z,98793.16
2022-09-24T07:28:36.902Z,98796.97
2022-09-24T07:31:05.677Z,98790.81
2022-09-24T07:33:34.384Z,98789.91
2022-09-24T07:36:08.634Z,98790.13
2022-09-24T07:38:40.172Z,98790.88
2022-09-24T07:41:10.690Z,98792.38
2022-09-24T07:43:39.639Z,98796.16
2022-09-24T07:46:08.335Z,98794.09
2022-09-24T07:48:36.886Z,98786.94
2022-09-24T07:51:07.369Z,98779.25
2022-09-24T07:53:36.186Z,98779.25
2022-09-24T07:56:05.840Z,98775.13
2022-09-24T07:58:34.523Z,98776.44
2022-09-24T08:01:03.270Z,98780.75
2022-09-24T08:03:32.577Z,98779.25
2022-09-24T08:06:02.937Z,98771.56
2022-09-24T08:08:31.561Z,98767.97
2022-09-24T08:11:05.108Z,98772.88
2022-09-24T08:13:35.486Z,98767.78
2022-09-24T08:16:05.192Z,98764.22
2022-09-24T08:18:34.704Z,98766.06
2022-09-24T08:21:08.644Z,98774.50
2022-09-24T08:23:37.454Z,98759.69
2022-09-24T08:26:06.298Z,98765.31
2022-09-24T08:28:35.593Z,98765.31
2022-09-24T08:31:10.010Z,98771.69
2022-09-24T08:33:40.071Z,98755.34
2022-09-24T08:36:10.938Z,98757.41
2022-09-24T08:38:40.047Z,98763.59
2022-09-24T08:41:14.280Z,98760.78
2022-09-24T08:44:00.301Z,98757.97
2022-09-24T08:46:54.692Z,98751.38
2022-09-24T08:49:31.890Z,98753.41
2022-09-24T08:52:11.309Z,98741.38
2022-09-24T08:54:42.298Z,98743.44
2022-09-24T08:57:19.164Z,98749.06
2022-09-24T08:59:53.067Z,98746.78
2022-09-24T09:02:27.467Z,98742.69
2022-09-24T09:05:21.072Z,98728.59
2022-09-24T09:08:41.410Z,98732.16
2022-09-24T09:11:09.656Z,98733.47
2022-09-24T09:13:43.272Z,98732.69
2022-09-24T09:16:52.816Z,98730.84
2022-09-24T09:19:27.259Z,98735.75
2022-09-24T09:22:16.216Z,98738.56
2022-09-24T09:24:50.671Z,98747.00
2022-09-24T09:27:20.702Z,98748.31
2022-09-24T09:30:04.385Z,98746.25
2022-09-24T09:33:02.247Z,98738.31
2022-09-24T09:35:34.229Z,98733.47
2022-09-24T09:38:20.178Z,98731.19
2022-09-24T09:41:07.234Z,98731.94
2022-09-24T09:43:36.424Z,98738.88
2022-09-24T09:46:35.883Z,98738.88
2022-09-24T09:49:08.563Z,98739.41
2022-09-24T09:51:44.049Z,98742.03
2022-09-24T09:54:12.629Z,98744.09
2022-09-24T09:56:50.175Z,98749.53
2022-09-24T09:59:29.456Z,98759.28
2022-09-24T10:01:58.943Z,98763.41
2022-09-24T10:04:36.769Z,98759.63
2022-09-24T10:07:16.791Z,98765.81
2022-09-24T10:09:47.928Z,98768.41
2022-09-24T10:12:25.392Z,98773.84
2022-09-24T10:15:17.677Z,98774.41
2022-09-24T10:17:49.473Z,98772.69
2022-09-24T10:20:36.264Z,98775.50
2022-09-24T10:23:09.372Z,98780.91
2022-09-24T10:25:38.365Z,98789.16
2022-09-24T10:28:37.209Z,98790.44
2022-09-24T10:31:12.702Z,98794.56
2022-09-24T10:33:44.440Z,98781.56
2022-09-24T10:36:18.592Z,98787.97
2022-09-24T10:38:47.390Z,98792.63
2022-09-24T10:41:28.349Z,98798.81
2022-09-24T10:43:58.659Z,98802.16
2022-09-24T10:46:41.824Z,98807.59
2022-09-24T10:49:21.897Z,98813.00
2022-09-24T10:52:11.243Z,98827.41
2022-09-24T10:55:03.874Z,98833.59
2022-09-24T10:57:43.020Z,98843.88
2022-09-24T11:00:17.957Z,98848.56
2022-09-24T11:03:17.335Z,98850.41
2022-09-24T11:06:09.842Z,98853.72
2022-09-24T11:09:02.944Z,98851.25
2022-09-24T11:11:56.493Z,98839.75
2022-09-24T11:14:30.670Z,98848.72
2022-09-24T11:17:08.118Z,98840.84
2022-09-24T11:19:39.268Z,98835.00
2022-09-24T11:22:18.043Z,98845.50
2022-09-24T11:25:23.231Z,98857.28
2022-09-24T11:28:10.304Z,98865.53
2022-09-24T11:30:53.850Z,98868.13
2022-09-24T11:33:31.159Z,98881.22
2022-09-24T11:36:38.614Z,98899.19
2022-09-24T11:39:44.152Z,98905.56
2022-09-24T11:42:53.649Z,98897.31
2022-09-24T11:45:38.133Z,98899.16
2022-09-24T11:48:38.454Z,98897.81
2022-09-24T11:51:34.695Z,98894.75
2022-09-24T11:54:28.335Z,98908.19
2022-09-24T11:57:13.654Z,98913.47
2022-09-24T11:59:48.999Z,98931.28
2022-09-24T12:02:32.122Z,98943.41
2022-09-24T12:05:16.308Z,98952.78
2022-09-24T12:08:10.193Z,98961.28
2022-09-24T12:11:15.350Z,98946.88
2022-09-24T12:13:49.945Z,98947.72
2022-09-24T12:16:22.901Z,98959.25
2022-09-24T12:18:57.430Z,98968.50
2022-09-24T12:21:47.947Z,98974.69
2022-09-24T12:24:21.725Z,98979.38
2022-09-24T12:26:52.425Z,98980.28
2022-09-24T12:30:16.255Z,98981.88
2022-09-24T12:33:14.594Z,98975.09
2022-09-24T12:36:09.185Z,98972.88
2022-09-24T12:38:43.864Z,98974.94
2022-09-24T12:41:30.777Z,98981.38
2022-09-24T12:44:21.108Z,98986.00
2022-09-24T12:46:56.992Z,98991.88
2022-09-24T12:49:28.498Z,98993.69
2022-09-24T13:01:03.916Z,99018.75
2022-09-24T13:03:46.078Z,99014.91
2022-09-24T13:06:37.126Z,99003.47
2022-09-24T13:09:26.129Z,99001.19
2022-09-24T13:12:15.518Z,99005.78
2022-09-24T13:14:51.306Z,99009.13
2022-09-24T13:17:20.275Z,99006.09
2022-09-24T13:19:50.988Z,99022.66
2022-09-24T13:22:24.947Z,99026.00
2022-09-24T13:25:06.661Z,99030.59
2022-09-24T13:27:38.957Z,99039.00
2022-09-24T13:30:13.510Z,99038.00
2022-09-24T13:33:14.174Z,99037.75
2022-09-24T13:36:14.788Z,99048.19
2022-09-24T13:44:59.798Z,99067.56
2022-09-24T13:47:38.815Z,99064.75
2022-09-24T13:50:26.059Z,99060.44
2022-09-24T13:53:09.104Z,99060.44
2022-09-24T13:55:54.957Z,99073.69
2022-09-24T13:58:33.981Z,99068.84
2022-09-24T14:01:13.207Z,99082.09
2022-09-24T14:03:42.920Z,99086.44
2022-09-24T14:06:16.716Z,99096.13
2022-09-24T14:08:48.286Z,99101.72
2022-09-24T14:11:25.755Z,99103.25
2022-09-24T14:13:56.117Z,99110.38
2022-09-24T14:16:26.248Z,99116.75
2022-09-24T14:19:07.817Z,99113.44
2022-09-24T14:21:48.955Z,99114.97
2022-09-24T14:24:25.455Z,99118.00
2022-09-24T14:27:03.201Z,99123.88
2022-09-24T14:29:45.447Z,99125.38
2022-09-24T14:32:34.432Z,99122.06
2022-09-24T14:35:07.239Z,99129.97
2022-09-24T14:37:50.854Z,99132.25
2022-09-24T14:40:22.988Z,99130.19
2022-09-24T14:43:01.016Z,99139.59
2022-09-24T14:45:38.979Z,99142.66
2022-09-24T14:48:31.060Z,99135.75
2022-09-24T14:50:59.968Z,99126.06
2022-09-24T14:53:38.934Z,99126.31
2022-09-24T14:56:27.855Z,99131.91
2022-09-24T14:58:56.668Z,99127.06
2022-09-24T15:01:32.206Z,99134.19
2022-09-24T15:04:19.485Z,99139.31
2022-09-24T15:06:49.619Z,99140.84
2022-09-24T15:09:23.899Z,99144.41
2022-09-24T15:11:56.335Z,99138.81
2022-09-24T15:14:32.531Z,99142.38
2022-09-24T15:17:22.987Z,99144.13
2022-09-24T15:19:55.647Z,99146.19
2022-09-24T15:22:25.382Z,99141.31
2022-09-24T15:25:00.968Z,99132.41
2022-09-24T15:27:33.231Z,99143.09
2022-09-24T15:30:05.632Z,99142.56
2022-09-24T15:32:37.747Z,99144.84
2022-09-24T15:35:10.470Z,99144.84
2022-09-24T15:37:40.830Z,99138.72
2022-09-24T15:40:24.298Z,99141.53
2022-09-24T15:42:53.443Z,99132.59
2022-09-24T15:45:24.732Z,99132.59
2022-09-24T15:47:54.752Z,99137.44
2022-09-24T15:50:25.287Z,99131.59
2022-09-24T15:52:58.809Z,99134.41
2022-09-24T15:55:27.670Z,99136.97
2022-09-24T15:57:56.438Z,99133.91
2022-09-24T16:00:26.868Z,99135.72
2022-09-24T16:02:57.871Z,99129.88
2022-09-24T16:05:27.234Z,99127.06
2022-09-24T16:07:55.889Z,99121.97
2022-09-24T16:10:24.499Z,99121.22
2022-09-24T16:12:53.028Z,99116.13
2022-09-24T16:15:22.688Z,99114.56
2022-09-24T16:17:51.325Z,99113.81
2022-09-24T16:20:20.247Z,99107.44
2022-09-24T16:22:48.827Z,99106.69
2022-09-24T16:25:17.387Z,99110.25
2022-09-24T16:27:46.020Z,99113.81
2022-09-24T16:30:14.733Z,99112.56
2022-09-24T16:32:43.298Z,99113.31
2022-09-24T16:35:12.331Z,99112.03
2022-09-24T16:37:42.668Z,99110.00
2022-09-24T16:40:11.815Z,99110.75
2022-09-24T16:42:40.511Z,99113.56
2022-09-24T16:45:11.539Z,99101.81
2022-09-24T16:47:40.077Z,99096.47
2022-09-24T16:50:09.187Z,99088.81
2022-09-24T16:52:37.727Z,99086.00
2022-09-24T16:55:06.648Z,99088.28
2022-09-24T16:57:38.505Z,99079.88
2022-09-24T17:00:09.905Z,99075.03
2022-09-24T17:02:39.095Z,99068.13
2022-09-24T17:05:08.215Z,99067.59
2022-09-24T17:07:36.941Z,99060.72
2022-09-24T17:10:15.185Z,99059.19
2022-09-24T17:12:52.289Z,99050.78
2022-09-24T17:15:22.159Z,99047.75
2022-09-24T17:17:51.841Z,99051.31
2022-09-24T17:20:20.971Z,99056.91
2022-09-24T17:22:50.832Z,99056.16
2022-09-24T17:25:19.508Z,99063.81
2022-09-24T17:27:48.071Z,99063.28
2022-09-24T17:30:17.102Z,99062.53
2022-09-24T17:32:45.659Z,99058.44
2022-09-24T17:35:15.838Z,99057.16
2022-09-24T17:37:45.293Z,99052.31
2022-09-24T17:40:13.933Z,99055.88
2022-09-24T17:42:46.826Z,99054.59
2022-09-24T17:45:15.366Z,99060.19
2022-09-24T17:47:59.070Z,99056.88
2022-09-24T17:50:27.695Z,99055.59
2022-09-24T17:52:56.153Z,99056.34
2022-09-24T17:55:24.774Z,99055.81
2022-09-24T17:57:53.382Z,99057.88
2022-09-24T18:00:21.922Z,99052.25
2022-09-24T18:02:50.562Z,99043.31
2022-09-24T18:05:19.189Z,99044.59
2022-09-24T18:07:48.198Z,99040.50
2022-09-24T18:10:19.230Z,99048.16
2022-09-24T18:12:47.757Z,99040.50
2022-09-24T18:15:16.358Z,99043.31
2022-09-24T18:17:44.921Z,99045.34
2022-09-24T18:20:13.791Z,99041.03
2022-09-24T18:22:42.363Z,99050.22
2022-09-24T18:25:11.602Z,99038.22
2022-09-24T18:27:40.222Z,99030.56
2022-09-24T18:30:12.610Z,99022.91
2022-09-24T18:32:41.540Z,99022.16
2022-09-24T18:35:11.073Z,99021.41
2022-09-24T18:37:40.099Z,99015.03
2022-09-24T18:40:09.255Z,99016.56
2022-09-24T18:42:37.760Z,99016.56
2022-09-24T18:45:07.029Z,99019.34
2022-09-24T18:47:39.425Z,99020.63
2022-09-24T18:50:08.809Z,99011.47
2022-09-24T18:52:37.662Z,99013.75
2022-09-24T18:55:07.875Z,99012.22
2022-09-24T18:57:36.427Z,99008.13
2022-09-24T19:00:05.810Z,99011.47
2022-09-24T19:02:34.453Z,99013.75
2022-09-24T19:05:03.028Z,99012.47
2022-09-24T19:07:31.737Z,99006.09
2022-09-24T19:10:00.398Z,99013.22
2022-09-24T19:12:30.808Z,99008.38
2022-09-24T19:15:01.453Z,99009.13
2022-09-24T19:17:30.031Z,99011.94
2022-09-24T19:20:00.189Z,99003.53
2022-09-24T19:22:28.714Z,98998.66
2022-09-24T19:24:57.218Z,98994.34
2022-09-24T19:27:25.728Z,98986.94
2022-09-24T19:29:54.868Z,98981.31
2022-09-24T19:32:23.477Z,98967.28
2022-09-24T19:34:51.976Z,98967.28
2022-09-24T19:37:20.457Z,98958.13
2022-09-24T19:39:48.997Z,98959.94
2022-09-24T19:42:17.549Z,98968.34
2022-09-24T19:44:46.328Z,98955.06
2022-09-24T19:47:14.819Z,98951.50
2022-09-24T19:49:43.458Z,98956.38
2022-09-24T19:52:12.038Z,98950.75
2022-09-24T19:54:40.469Z,98964.78
2022-09-24T19:57:08.968Z,98961.22
2022-09-24T19:59:37.898Z,98966.81
2022-09-24T20:02:06.520Z,98966.06
2022-09-24T20:04:35.659Z,98959.69
2022-09-24T20:07:06.047Z,98959.69
2022-09-24T20:09:34.757Z,98969.41
2022-09-24T20:12:03.734Z,98956.88
2022-09-24T20:14:33.805Z,98963.78
2022-09-24T20:17:02.437Z,98966.59
2022-09-24T20:19:30.906Z,98955.91
2022-09-24T20:21:59.977Z,98957.19
2022-09-24T20:24:28.774Z,98959.22
2022-09-24T20:27:15.382Z,98959.75
2022-09-24T20:29:45.191Z,98956.41
2022-09-24T20:32:16.889Z,98962.56
2022-09-24T20:34:45.341Z,98965.13
2022-09-24T20:37:13.870Z,98960.81
2022-09-24T20:39:42.440Z,98958.81
2022-09-24T20:42:10.980Z,98965.72
2022-09-24T20:44:39.420Z,98970.56
2022-09-24T20:47:07.851Z,98965.22
2022-09-24T20:49:36.767Z,98967.25
2022-09-24T20:52:06.751Z,98964.97
2022-09-24T20:54:35.733Z,98967.00
2022-09-24T20:57:04.572Z,98972.63
2022-09-24T20:59:33.100Z,98970.34
2022-09-24T21:02:01.636Z,98970.63
2022-09-24T21:04:30.151Z,98974.97
2022-09-24T21:06:58.680Z,98978.28
2022-09-24T21:09:27.152Z,98976.75
2022-09-24T21:11:55.790Z,98976.75
2022-09-24T21:14:24.642Z,98982.13
2022-09-24T21:16:56.121Z,98982.13
2022-09-24T21:19:25.430Z,98979.84
2022-09-24T21:21:54.892Z,98981.91
2022-09-24T21:24:27.692Z,98981.66
2022-09-24T21:27:00.477Z,98987.25
2022-09-24T21:29:29.159Z,98986.50
2022-09-24T21:31:57.708Z,98984.97
2022-09-24T21:34:26.897Z,98987.78
2022-09-24T21:36:56.054Z,98994.69
2022-09-24T21:39:27.767Z,98997.47
2022-09-24T21:42:00.260Z,98993.41
2022-09-24T21:44:34.994Z,98997.47
2022-09-24T21:47:03.874Z,99002.31
2022-09-24T21:49:34.622Z,99007.94
2022-09-24T21:52:05.961Z,99005.88
2022-09-24T21:54:35.061Z,99003.59
2022-09-24T21:57:03.801Z,99001.31
2022-09-24T21:59:50.596Z,99020.16
2022-09-24T22:02:19.722Z,99021.72
2022-09-24T22:04:48.694Z,99017.63
2022-09-24T22:07:17.316Z,99022.72
2022-09-24T22:09:45.775Z,99015.09
2022-09-24T22:12:14.426Z,99022.50
2022-09-24T22:14:42.868Z,99018.69
2022-09-24T22:17:11.463Z,99014.13
2022-09-24T22:19:40.166Z,99012.88
2022-09-24T22:22:08.756Z,99007.56
2022-09-24T22:24:37.534Z,99006.56
2022-09-24T22:27:06.146Z,99009.88
2022-09-24T22:29:34.845Z,99010.16
2022-09-24T22:32:04.637Z,99019.56
2022-09-24T22:34:51.447Z,99013.72
2022-09-24T22:37:19.899Z,99016.06
2022-09-24T22:39:48.400Z,99013.78
2022-09-24T22:42:16.928Z,99017.84
2022-09-24T22:44:45.517Z,99027.00
2022-09-24T22:47:14.066Z,99033.38
2022-09-24T22:49:42.523Z,99038.47
2022-09-24T22:52:11.051Z,99037.19
2022-09-24T22:54:39.530Z,99037.44
2022-09-24T22:57:07.941Z,99035.63
2022-09-24T22:59:36.432Z,99046.84
2022-09-24T23:02:08.206Z,99046.31
2022-09-24T23:04:39.489Z,99048.63
2022-09-24T23:07:08.119Z,99055.75
2022-09-24T23:09:36.602Z,99057.28
2022-09-24T23:12:05.211Z,99068.72
2022-09-24T23:14:33.729Z,99063.13
2022-09-24T23:17:02.243Z,99070.25
2022-09-24T23:19:49.647Z,99071.00
2022-09-24T23:22:20.263Z,99075.34
2022-09-24T23:24:51.465Z,99083.75
2022-09-24T23:27:21.329Z,99086.53
2022-09-24T23:29:49.825Z,99092.16
2022-09-24T23:32:19.151Z,99088.06
2022-09-24T23:34:47.668Z,99100.03
2022-09-24T23:37:16.190Z,99109.19
2022-09-24T23:39:44.723Z,99103.59
2022-09-24T23:42:13.426Z,99100.03
2022-09-24T23:44:42.174Z,99106.91
2022-09-24T23:47:10.672Z,99111.75
2022-09-24T23:49:39.222Z,99104.88
2022-09-24T23:52:08.083Z,99120.16
2022-09-24T23:54:40.537Z,99122.44
2022-09-24T23:57:09.028Z,99129.56
2022-09-24T23:59:37.579Z,99130.34
